createdAt,value
2022-12-25T00:00:21.154Z,6.5
2022-12-25T00:05:18.571Z,6.2
2022-12-25T00:10:17.679Z,9.8
2022-12-25T00:15:16.799Z,6.2
2022-12-25T00:20:15.909Z,5.4
2022-12-25T00:25:15.088Z,3.6
2022-12-25T00:30:14.270Z,4.9
2022-12-25T00:35:13.347Z,4.3
2022-12-25T00:40:12.402Z,4
2022-12-25T00:45:11.532Z,2.3
2022-12-25T00:50:10.679Z,3.2
2022-12-25T00:55:09.795Z,2.2
2022-12-25T01:00:08.948Z,2.2
2022-12-25T01:05:08.042Z,3.3
2022-12-25T01:10:07.178Z,2.8
2022-12-25T01:15:06.277Z,2.6
2022-12-25T01:20:05.435Z,2.5
2022-12-25T01:25:04.567Z,2.7
2022-12-25T01:30:03.720Z,2.5
2022-12-25T01:35:02.875Z,2.3
2022-12-25T01:40:02.029Z,2.1
2022-12-25T01:45:01.168Z,2.8
2022-12-25T01:50:00.383Z,2.4
2022-12-25T01:54:59.484Z,2.8
2022-12-25T01:59:58.621Z,3
2022-12-25T02:04:57.788Z,2.8
2022-12-25T02:09:56.903Z,2.2
2022-12-25T02:14:59.743Z,1.8
2022-12-25T02:19:55.252Z,2.1
2022-12-25T02:24:54.411Z,2.2
2022-12-25T02:29:53.469Z,2.1
2022-12-25T02:34:52.620Z,2.7
2022-12-25T02:39:51.841Z,2.2
2022-12-25T02:44:50.980Z,2.6
2022-12-25T02:49:50.090Z,2.4
2022-12-25T02:54:49.293Z,1.9
2022-12-25T02:59:48.422Z,2.2
2022-12-25T03:04:47.589Z,2.1
2022-12-25T03:09:46.779Z,2.4
2022-12-25T03:14:45.902Z,2.4
2022-12-25T03:19:45.010Z,2.1
2022-12-25T03:24:44.163Z,2
2022-12-25T03:29:43.382Z,2.8
2022-12-25T03:34:42.496Z,2.3
2022-12-25T03:39:41.687Z,1.3
2022-12-25T03:44:40.771Z,1.8
2022-12-25T03:49:39.906Z,1.4
2022-12-25T03:54:39.054Z,1.6
2022-12-25T03:59:38.213Z,1.4
2022-12-25T04:04:37.429Z,1.5
2022-12-25T04:09:36.546Z,0.7
2022-12-25T04:14:35.691Z,1.2
2022-12-25T04:19:34.852Z,1.1
2022-12-25T04:24:34.008Z,2.4
2022-12-25T04:29:33.227Z,1.4
2022-12-25T04:34:32.415Z,1.3
2022-12-25T04:39:31.539Z,1.3
2022-12-25T04:44:30.673Z,3.5
2022-12-25T04:49:29.847Z,2.9
2022-12-25T04:54:29.026Z,2.2
2022-12-25T04:59:28.188Z,3.4
2022-12-25T05:04:27.340Z,5
2022-12-25T05:09:26.539Z,4.3
2022-12-25T05:14:25.740Z,5.7
2022-12-25T05:19:24.897Z,5.2
2022-12-25T05:24:24.013Z,4.8
2022-12-25T05:29:23.199Z,4.4
2022-12-25T05:34:22.351Z,5.3
2022-12-25T05:39:21.496Z,4.5
2022-12-25T05:44:20.698Z,5.7
2022-12-25T05:49:19.795Z,4.5
2022-12-25T05:54:18.914Z,6.5
2022-12-25T05:59:18.068Z,6.3
2022-12-25T06:04:17.273Z,6.4
2022-12-25T06:09:16.379Z,7.6
2022-12-25T06:14:15.601Z,8.5
2022-12-25T06:19:14.708Z,10.9
2022-12-25T06:24:19.317Z,11.1
2022-12-25T06:29:12.954Z,13.1
2022-12-25T06:34:12.083Z,21.2
2022-12-25T06:39:11.245Z,17.1
2022-12-25T06:44:10.437Z,17.1
2022-12-25T06:49:09.604Z,15.8
2022-12-25T06:54:08.664Z,16.3
2022-12-25T06:59:07.799Z,18.9
2022-12-25T07:04:06.948Z,17.8
2022-12-25T07:09:06.081Z,18.9
2022-12-25T07:14:05.225Z,19.1
2022-12-25T07:19:04.400Z,22.3
2022-12-25T07:24:03.580Z,23
2022-12-25T07:29:02.731Z,19.7
2022-12-25T07:34:01.896Z,20.1
2022-12-25T07:39:01.092Z,30.2
2022-12-25T07:44:00.225Z,24.3
2022-12-25T07:48:59.414Z,30.4
2022-12-25T07:53:58.520Z,28.5
2022-12-25T07:58:57.738Z,29.4
2022-12-25T08:03:56.929Z,41.1
2022-12-25T08:08:56.034Z,51
2022-12-25T08:13:55.213Z,45
2022-12-25T08:18:54.378Z,51.2
2022-12-25T08:23:53.575Z,45.8
2022-12-25T08:28:52.783Z,51.4
2022-12-25T08:33:51.975Z,47.2
2022-12-25T08:38:51.572Z,51.9
2022-12-25T08:43:50.302Z,47.7
2022-12-25T08:48:49.515Z,76.4
2022-12-25T08:53:48.745Z,79.1
2022-12-25T08:58:47.967Z,82.1
2022-12-25T09:03:47.215Z,78.6
2022-12-25T09:08:49.295Z,74.1
2022-12-25T09:13:45.590Z,79
2022-12-25T09:18:44.789Z,66.5
2022-12-25T09:23:44.003Z,97.2
2022-12-25T09:28:50.180Z,85.1
2022-12-25T09:33:42.460Z,76.8
2022-12-25T09:38:41.701Z,73.8
2022-12-25T09:43:40.951Z,72.7
2022-12-25T09:48:40.183Z,60.1
2022-12-25T09:53:39.432Z,71.6
2022-12-25T09:58:38.676Z,62.1
2022-12-25T10:03:37.999Z,54.1
2022-12-25T10:08:37.185Z,56.4
2022-12-25T10:13:36.477Z,47.8
2022-12-25T10:18:35.703Z,76.4
2022-12-25T10:23:35.010Z,46.4
2022-12-25T10:28:34.298Z,40.9
2022-12-25T10:33:33.628Z,41.3
2022-12-25T10:38:32.905Z,29.7
2022-12-25T10:43:32.205Z,26.4
2022-12-25T10:48:31.535Z,31.2
2022-12-25T10:53:30.787Z,27.5
2022-12-25T10:58:30.107Z,24.8
2022-12-25T11:03:29.504Z,25
2022-12-25T11:08:28.734Z,25.3
2022-12-25T11:13:29.117Z,30.9
2022-12-25T11:18:27.373Z,16.5
2022-12-25T11:23:26.664Z,16.9
2022-12-25T11:28:25.939Z,17.8
2022-12-25T11:33:25.229Z,15.5
2022-12-25T11:34:21.250Z,15.5
2022-12-25T11:34:47.156Z,15.5
2022-12-25T11:38:24.553Z,8.2
2022-12-25T11:43:23.858Z,16.4
2022-12-25T11:48:23.163Z,7.5
2022-12-25T11:53:22.453Z,6.2
2022-12-25T11:58:21.781Z,6.1
2022-12-25T12:03:21.191Z,7.7
2022-12-25T12:06:58.745Z,7.7
2022-12-25T12:08:49.471Z,6.9
2022-12-25T12:09:33.219Z,6.9
2022-12-25T12:10:56.099Z,6.9
2022-12-25T12:13:28.777Z,7.8
2022-12-25T12:18:03.713Z,7.8
2022-12-25T12:18:19.074Z,9
2022-12-25T12:23:18.368Z,38.2
2022-12-25T12:28:17.753Z,60.7
2022-12-25T12:33:17.707Z,48.3
2022-12-25T12:38:16.330Z,15.2
2022-12-25T12:43:15.666Z,7.6
2022-12-25T12:48:14.984Z,13.1
2022-12-25T12:53:14.270Z,26.1
2022-12-25T12:58:13.567Z,27.4
2022-12-25T13:03:13.101Z,7.3
2022-12-25T13:08:12.193Z,21
2022-12-25T13:13:11.550Z,20.1
2022-12-25T13:18:10.828Z,11.6
2022-12-25T13:23:10.134Z,18.6
2022-12-25T13:28:09.384Z,19.8
2022-12-25T13:33:08.813Z,11.8
2022-12-25T13:38:07.984Z,13.2
2022-12-25T13:43:07.311Z,10.7
2022-12-25T13:48:06.525Z,10.5
2022-12-25T13:53:05.888Z,6.4
2022-12-25T13:58:05.067Z,8.2
2022-12-25T14:03:04.498Z,9.1
2022-12-25T14:12:31.374Z,11.2
2022-12-25T14:13:02.907Z,12.1
2022-12-25T14:18:02.188Z,8.6
2022-12-25T14:23:01.486Z,19.1
2022-12-25T14:28:00.748Z,16.2
2022-12-25T14:33:00.070Z,21.5
2022-12-25T14:37:59.335Z,16
2022-12-25T14:42:58.637Z,15.7
2022-12-25T14:47:57.874Z,15.9
2022-12-25T14:52:57.162Z,17.2
2022-12-25T14:57:56.413Z,17.2
2022-12-25T15:02:55.964Z,17.4
2022-12-25T15:07:54.959Z,24.2
2022-12-25T15:12:54.265Z,32.7
2022-12-25T15:17:53.624Z,26
2022-12-25T15:23:18.351Z,25.4
2022-12-25T15:27:52.185Z,33
2022-12-25T15:32:51.506Z,54.3
2022-12-25T15:37:50.761Z,37
2022-12-25T15:42:49.999Z,42.9
2022-12-25T15:47:49.286Z,34.5
2022-12-25T15:52:48.561Z,26.2
2022-12-25T15:57:47.880Z,58.3
2022-12-25T16:02:47.345Z,75
2022-12-25T16:07:46.371Z,48.9
2022-12-25T16:12:45.700Z,42.5
2022-12-25T16:17:45.078Z,32.4
2022-12-25T16:22:44.363Z,29.9
2022-12-25T16:27:43.503Z,15.8
2022-12-25T16:32:42.869Z,19
2022-12-25T16:37:42.074Z,15
2022-12-25T16:42:41.399Z,17.3
2022-12-25T16:47:40.594Z,15.8
2022-12-25T16:52:39.885Z,17.8
2022-12-25T16:57:39.097Z,13.6
2022-12-25T17:02:38.553Z,14
2022-12-25T17:07:37.679Z,11.4
2022-12-25T17:12:36.885Z,12.6
2022-12-25T17:17:36.169Z,21
2022-12-25T17:22:35.459Z,18.1
2022-12-25T17:27:34.724Z,64.1
2022-12-25T17:32:33.968Z,30.1
2022-12-25T17:37:33.237Z,10.4
2022-12-25T17:42:32.544Z,11.1
2022-12-25T17:47:31.802Z,12.1
2022-12-25T17:52:31.050Z,21.2
2022-12-25T17:57:30.278Z,17.4
2022-12-25T18:02:29.820Z,20.4
2022-12-25T18:07:28.820Z,19.9
2022-12-25T18:12:28.115Z,17.3
2022-12-25T18:17:27.309Z,18.5
2022-12-25T18:22:26.567Z,16.1
2022-12-25T18:27:25.871Z,19.2
2022-12-25T18:32:28.118Z,16.4
2022-12-25T18:37:24.256Z,17.8
2022-12-25T18:42:23.496Z,15.6
2022-12-25T18:47:22.666Z,13.3
2022-12-25T18:52:49.908Z,12.7
2022-12-25T18:57:21.071Z,10.3
2022-12-25T19:02:20.410Z,9.6
2022-12-25T19:07:19.516Z,10.3
2022-12-25T19:12:18.715Z,9.5
2022-12-25T19:17:17.922Z,10.3
2022-12-25T19:22:17.117Z,11.3
2022-12-25T19:27:16.343Z,11.1
2022-12-25T19:32:15.524Z,12.6
2022-12-25T19:37:14.747Z,12.8
2022-12-25T19:42:13.923Z,14.5
2022-12-25T19:47:13.171Z,16.5
2022-12-25T19:52:12.379Z,15.3
2022-12-25T19:57:11.684Z,28.7
2022-12-25T20:02:11.009Z,48.8
2022-12-25T20:07:10.106Z,52.5
2022-12-25T20:12:09.339Z,187.5
2022-12-25T20:17:15.336Z,77.2
2022-12-25T20:22:07.966Z,11.7
2022-12-25T20:27:07.002Z,32.3
2022-12-25T20:32:06.398Z,17.8
2022-12-25T20:37:05.429Z,19.1
2022-12-25T20:42:04.641Z,12.3
2022-12-25T20:47:03.910Z,11.1
2022-12-25T20:52:05.116Z,9.8
2022-12-25T20:57:02.611Z,9.4
2022-12-25T21:02:02.199Z,9.8
2022-12-25T21:07:00.772Z,8.2
2022-12-25T21:11:59.989Z,7.1
2022-12-25T21:16:59.321Z,17.5
2022-12-25T21:21:58.483Z,12.8
2022-12-25T21:26:57.625Z,9.1
2022-12-25T21:31:56.859Z,10
2022-12-25T21:36:56.010Z,10.7
2022-12-25T21:41:55.217Z,10.4
2022-12-25T21:46:54.473Z,9.1
2022-12-25T21:51:53.745Z,7.9
2022-12-25T21:56:52.850Z,8.6
2022-12-25T22:01:52.321Z,7.5
2022-12-25T22:06:51.280Z,7.8
2022-12-25T22:11:50.454Z,9.1
2022-12-25T22:16:49.697Z,7.6
2022-12-25T22:21:48.886Z,9.2
2022-12-25T22:26:48.127Z,6.3
2022-12-25T22:31:47.442Z,7.6
2022-12-25T22:36:46.520Z,7.6
2022-12-25T22:41:45.779Z,8.6
2022-12-25T22:46:45.095Z,8.7
2022-12-25T22:51:44.250Z,7
2022-12-25T22:56:43.375Z,8.1
2022-12-25T23:01:42.764Z,7.9
2022-12-25T23:06:41.840Z,8.5
2022-12-25T23:11:41.030Z,8
2022-12-25T23:16:40.254Z,7.8
2022-12-25T23:21:39.488Z,7.5
2022-12-25T23:26:38.685Z,6.6
2022-12-25T23:31:37.989Z,7.5
2022-12-25T23:36:37.112Z,8.2
2022-12-25T23:41:36.346Z,9.1
2022-12-25T23:46:35.596Z,7.9
2022-12-25T23:51:34.797Z,7.2
2022-12-25T23:56:34.252Z,8.5
